createdAt,value
2018-09-06T00:05:02.616Z,12.67
2018-09-06T00:10:06.375Z,11.87
2018-09-06T00:15:10.027Z,14.77
2018-09-06T00:20:13.636Z,12.77
2018-09-06T00:25:17.195Z,17.73
2018-09-06T00:30:29.175Z,14.97
2018-09-06T00:35:32.674Z,13.90
2018-09-06T00:40:36.718Z,12.33
2018-09-06T00:45:40.211Z,12.63
2018-09-06T00:50:43.781Z,13.93
2018-09-06T00:55:50.531Z,12.53
2018-09-06T01:00:54.295Z,14.30
2018-09-06T01:05:57.827Z,11.70
2018-09-06T01:11:01.484Z,14.03
2018-09-06T01:16:05.262Z,11.17
2018-09-06T01:21:08.798Z,12.87
2018-09-06T01:26:12.393Z,12.50
2018-09-06T01:31:15.962Z,15.17
2018-09-06T01:36:24.727Z,12.27
2018-09-06T01:41:28.417Z,11.97
2018-09-06T01:46:31.964Z,13.57
2018-09-06T01:51:35.962Z,12.80
2018-09-06T01:56:39.452Z,13.67
2018-09-06T02:01:44.026Z,13.40
2018-09-06T02:06:47.586Z,13.60
2018-09-06T02:11:51.721Z,13.40
2018-09-06T02:16:55.221Z,15.73
2018-09-06T02:21:58.748Z,12.10
2018-09-06T02:27:02.289Z,14.97
2018-09-06T02:32:05.920Z,15.20
2018-09-06T02:37:09.398Z,14.37
2018-09-06T02:42:13.354Z,12.63
2018-09-06T02:47:16.916Z,14.47
2018-09-06T02:52:20.561Z,13.77
2018-09-06T02:57:24.081Z,15.73
2018-09-06T03:02:27.712Z,12.40
2018-09-06T03:07:31.313Z,14.93
2018-09-06T03:12:34.983Z,12.37
2018-09-06T03:17:38.685Z,11.90
2018-09-06T03:22:42.221Z,12.90
2018-09-06T03:27:45.694Z,15.27
2018-09-06T03:32:49.320Z,13.30
2018-09-06T03:37:52.838Z,16.07
2018-09-06T03:42:56.527Z,14.03
2018-09-06T03:48:00.094Z,14.73
2018-09-06T03:53:03.629Z,13.87
2018-09-06T03:58:07.217Z,13.70
2018-09-06T04:03:10.808Z,13.03
2018-09-06T04:08:14.435Z,12.60
2018-09-06T04:13:18.062Z,15.53
2018-09-06T04:18:22.026Z,13.97
2018-09-06T04:23:25.846Z,15.17
2018-09-06T04:28:30.179Z,15.00
2018-09-06T04:33:34.938Z,12.80
2018-09-06T04:38:38.436Z,14.13
2018-09-06T04:43:42.050Z,11.77
2018-09-06T04:48:45.650Z,12.07
2018-09-06T04:53:49.696Z,12.30
2018-09-06T04:58:53.543Z,14.67
2018-09-06T05:03:57.116Z,13.83
2018-09-06T05:09:00.637Z,19.97
2018-09-06T05:14:04.764Z,14.13
2018-09-06T05:19:08.237Z,16.13
2018-09-06T05:24:12.105Z,14.27
2018-09-06T05:29:15.593Z,14.30
2018-09-06T05:34:19.091Z,17.23
2018-09-06T05:39:22.564Z,18.03
2018-09-06T05:44:27.000Z,18.47
2018-09-06T05:49:30.477Z,18.00
2018-09-06T05:54:34.011Z,16.27
2018-09-06T05:59:37.625Z,16.73
2018-09-06T06:04:41.119Z,18.47
2018-09-06T06:09:44.717Z,20.23
2018-09-06T06:14:48.261Z,25.67
2018-09-06T06:19:51.766Z,23.37
2018-09-06T06:24:55.258Z,23.03
2018-09-06T06:29:58.752Z,20.00
2018-09-06T06:35:02.340Z,22.73
2018-09-06T06:40:06.028Z,23.20
2018-09-06T06:45:09.819Z,21.90
2018-09-06T06:50:13.391Z,20.40
2018-09-06T06:55:17.042Z,26.07
2018-09-06T07:00:28.078Z,22.97
2018-09-06T07:05:31.576Z,22.63
2018-09-06T07:10:35.118Z,20.43
2018-09-06T07:15:38.710Z,21.77
2018-09-06T07:20:42.173Z,22.63
2018-09-06T07:25:46.597Z,16.40
2018-09-06T07:30:50.483Z,19.50
2018-09-06T07:35:54.142Z,17.57
2018-09-06T07:40:57.629Z,20.90
2018-09-06T07:46:01.385Z,21.20
2018-09-06T07:51:04.993Z,19.37
2018-09-06T07:56:08.921Z,19.03
2018-09-06T08:01:12.393Z,18.50
2018-09-06T08:06:15.977Z,26.50
2018-09-06T08:11:19.721Z,20.80
2018-09-06T08:16:23.458Z,16.87
2018-09-06T08:21:26.922Z,21.23
2018-09-06T08:26:31.922Z,18.50
2018-09-06T08:31:35.861Z,21.37
2018-09-06T08:36:40.076Z,15.73
2018-09-06T08:41:43.674Z,15.83
2018-09-06T08:46:47.840Z,15.57
2018-09-06T08:51:51.400Z,14.93
2018-09-06T08:56:55.145Z,15.90
2018-09-06T09:01:59.119Z,14.70
2018-09-06T09:07:02.718Z,15.23
2018-09-06T09:12:06.470Z,17.23
2018-09-06T09:17:10.054Z,15.67
2018-09-06T09:22:14.112Z,15.80
2018-09-06T09:27:17.633Z,15.00
2018-09-06T09:32:21.140Z,14.27
2018-09-06T09:37:24.727Z,13.10
2018-09-06T09:42:28.327Z,13.27
2018-09-06T09:52:37.758Z,16.27
2018-09-06T09:57:41.288Z,14.70
2018-09-06T10:02:50.221Z,18.27
2018-09-06T10:07:57.919Z,18.80
2018-09-06T10:13:01.644Z,15.77
2018-09-06T10:18:05.234Z,14.53
2018-09-06T10:23:08.838Z,17.47
2018-09-06T10:28:12.506Z,15.17
2018-09-06T10:33:16.019Z,14.27
2018-09-06T10:38:19.637Z,14.27
2018-09-06T10:43:23.443Z,15.07
2018-09-06T10:48:26.962Z,15.97
2018-09-06T10:53:30.541Z,14.17
2018-09-06T10:58:34.114Z,15.90
2018-09-06T11:03:37.759Z,14.37
2018-09-06T11:08:41.277Z,10.70
2018-09-06T11:13:44.860Z,11.30
2018-09-06T11:18:48.605Z,10.60
2018-09-06T11:23:52.711Z,8.30
2018-09-06T11:28:56.253Z,6.97
2018-09-06T11:33:59.829Z,8.33
2018-09-06T11:39:04.787Z,6.73
2018-09-06T11:44:08.651Z,7.00
2018-09-06T11:49:12.289Z,8.97
2018-09-06T11:54:16.113Z,8.27
2018-09-06T11:59:19.600Z,8.70
2018-09-06T12:04:25.358Z,7.23
2018-09-06T12:09:28.836Z,8.97
2018-09-06T12:14:33.285Z,10.37
2018-09-06T12:19:36.865Z,8.60
2018-09-06T12:24:40.730Z,8.80
2018-09-06T12:29:44.325Z,8.47
2018-09-06T12:34:48.794Z,6.73
2018-09-06T12:39:52.373Z,8.03
2018-09-06T12:44:56.554Z,8.30
2018-09-06T12:50:00.045Z,10.10
2018-09-06T12:55:03.617Z,10.33
2018-09-06T13:00:10.047Z,13.43
2018-09-06T13:05:13.694Z,10.43
2018-09-06T13:10:17.248Z,10.40
2018-09-06T13:15:20.855Z,11.37
2018-09-06T13:20:24.343Z,11.47
2018-09-06T13:25:28.246Z,10.10
2018-09-06T13:30:35.602Z,10.10
2018-09-06T13:35:39.262Z,12.73
2018-09-06T13:40:43.756Z,11.27
2018-09-06T13:45:47.361Z,11.53
2018-09-06T13:50:51.663Z,9.43
2018-09-06T13:55:55.353Z,9.27
2018-09-06T14:00:59.443Z,9.40
2018-09-06T14:06:02.990Z,9.10
2018-09-06T14:11:06.555Z,9.43
2018-09-06T14:16:10.120Z,10.97
2018-09-06T14:21:13.878Z,8.43
2018-09-06T14:26:17.605Z,9.30
2018-09-06T14:31:21.569Z,9.43
2018-09-06T14:36:25.564Z,11.90
2018-09-06T14:41:29.121Z,11.60
2018-09-06T14:46:32.704Z,10.73
2018-09-06T14:51:36.267Z,9.83
2018-09-06T14:56:39.796Z,11.43
2018-09-06T15:01:45.532Z,9.43
2018-09-06T15:06:49.047Z,11.13
2018-09-06T15:11:52.545Z,9.73
2018-09-06T15:16:56.527Z,9.53
2018-09-06T15:22:00.069Z,11.03
2018-09-06T15:27:03.709Z,11.40
2018-09-06T15:32:08.276Z,13.60
2018-09-06T15:37:11.829Z,8.70
2018-09-06T15:42:15.351Z,11.50
2018-09-06T15:47:18.924Z,14.87
2018-09-06T15:52:23.503Z,10.40
2018-09-06T15:57:27.133Z,11.10
2018-09-06T16:02:38.403Z,12.70
2018-09-06T16:07:42.555Z,11.97
2018-09-06T16:12:46.101Z,14.23
2018-09-06T16:17:49.718Z,16.27
2018-09-06T16:22:53.341Z,14.87
2018-09-06T16:27:57.144Z,19.37
2018-09-06T16:33:00.655Z,22.30
2018-09-06T16:38:04.394Z,22.27
2018-09-06T16:43:07.884Z,20.87
2018-09-06T16:48:12.310Z,21.10
2018-09-06T16:53:16.191Z,24.07
2018-09-06T16:58:20.081Z,26.33
2018-09-06T17:03:23.606Z,24.63
2018-09-06T17:08:27.224Z,20.57
2018-09-06T17:13:31.815Z,21.93
2018-09-06T17:18:35.652Z,18.77
2018-09-06T17:23:39.238Z,17.30
2018-09-06T17:28:43.201Z,18.57
2018-09-06T17:33:46.783Z,15.47
2018-09-06T17:38:50.897Z,17.00
2018-09-06T17:43:54.558Z,17.60
2018-09-06T17:48:59.104Z,17.47
2018-09-06T17:54:02.935Z,21.00
2018-09-06T17:59:06.556Z,26.37
2018-09-06T18:04:10.930Z,30.73
2018-09-06T18:09:14.995Z,26.17
2018-09-06T18:14:18.568Z,28.03
2018-09-06T18:19:23.716Z,26.47
2018-09-06T18:24:27.306Z,31.33
2018-09-06T18:29:31.583Z,29.97
2018-09-06T18:34:35.079Z,33.27
2018-09-06T18:39:43.206Z,38.80
2018-09-06T18:44:46.838Z,35.70
2018-09-06T18:49:50.496Z,34.50
2018-09-06T18:54:54.049Z,31.37
2018-09-06T18:59:57.827Z,34.83
2018-09-06T19:05:01.685Z,35.83
2018-09-06T19:10:07.309Z,28.33
2018-09-06T19:15:10.830Z,35.20
2018-09-06T19:20:15.250Z,25.03
2018-09-06T19:25:18.784Z,35.27
2018-09-06T19:30:42.277Z,35.47
2018-09-06T19:35:46.597Z,36.17
2018-09-06T19:40:50.307Z,32.40
2018-09-06T19:45:54.262Z,30.33
2018-09-06T19:50:57.821Z,29.10
2018-09-06T19:56:01.382Z,43.47
2018-09-06T20:01:04.930Z,40.03
2018-09-06T20:06:08.606Z,43.97
2018-09-06T20:11:12.273Z,55.10
2018-09-06T20:16:15.807Z,50.57
2018-09-06T20:21:19.373Z,61.07
2018-09-06T20:26:22.855Z,65.47
2018-09-06T20:31:26.638Z,68.73
2018-09-06T20:36:30.238Z,65.17
2018-09-06T20:41:33.756Z,67.40
2018-09-06T20:46:37.880Z,63.33
2018-09-06T20:51:41.478Z,70.83
2018-09-06T20:56:45.621Z,87.40
2018-09-06T21:01:49.164Z,82.37
2018-09-06T21:06:52.646Z,90.57
2018-09-06T21:11:56.372Z,95.03
2018-09-06T21:17:00.453Z,98.83
2018-09-06T21:22:04.118Z,81.83
2018-09-06T21:27:07.849Z,88.67
2018-09-06T21:32:11.593Z,81.07
2018-09-06T21:37:15.082Z,74.40
2018-09-06T21:42:19.050Z,80.30
2018-09-06T21:47:22.579Z,71.63
2018-09-06T21:52:26.249Z,52.57
2018-09-06T21:57:30.578Z,39.53
2018-09-06T22:02:39.513Z,34.30
2018-09-06T22:07:43.094Z,20.53
2018-09-06T22:12:47.328Z,22.00
2018-09-06T22:17:50.889Z,23.33
2018-09-06T22:22:54.450Z,21.97
2018-09-06T22:27:58.039Z,21.93
2018-09-06T22:33:01.564Z,24.40
2018-09-06T22:38:05.352Z,23.73
2018-09-06T22:43:09.766Z,27.77
2018-09-06T22:48:13.264Z,25.33
2018-09-06T22:53:17.296Z,24.70
2018-09-06T22:58:20.881Z,23.37
2018-09-06T23:03:29.797Z,24.53
2018-09-06T23:08:34.127Z,27.53
2018-09-06T23:13:37.962Z,26.03
2018-09-06T23:18:42.304Z,26.83
2018-09-06T23:23:50.480Z,24.80
2018-09-06T23:28:54.535Z,27.27
2018-09-06T23:33:58.162Z,23.63
2018-09-06T23:39:02.008Z,21.80
2018-09-06T23:44:05.584Z,17.33
2018-09-06T23:49:09.643Z,16.57
2018-09-06T23:54:13.414Z,15.50
2018-09-06T23:59:16.984Z,19.97
